sensor_id;sensor_type;location;lat;lon;timestamp;P1;durP1;ratioP1;P2;durP2;ratioP2
6292;SDS011;3179;54.350;10.102;2024-03-06T00:00:36;11.73;;;7.00;;
6292;SDS011;3179;54.350;10.102;2024-03-06T00:03:03;11.63;;;7.27;;
6292;SDS011;3179;54.350;10.102;2024-03-06T00:05:32;11.30;;;7.93;;
6292;SDS011;3179;54.350;10.102;2024-03-06T00:07:59;9.90;;;7.00;;
6292;SDS011;3179;54.350;10.102;2024-03-06T00:10:28;10.83;;;8.43;;
6292;SDS011;3179;54.350;10.102;2024-03-06T00:12:55;9.77;;;6.70;;
6292;SDS011;3179;54.350;10.102;2024-03-06T00:15:22;9.70;;;6.57;;
6292;SDS011;3179;54.350;10.102;2024-03-06T00:17:48;8.67;;;6.50;;
6292;SDS011;3179;54.350;10.102;2024-03-06T00:20:15;9.17;;;6.53;;
6292;SDS011;3179;54.350;10.102;2024-03-06T00:22:44;6.03;;;5.47;;
6292;SDS011;3179;54.350;10.102;2024-03-06T00:25:11;6.93;;;5.83;;
6292;SDS011;3179;54.350;10.102;2024-03-06T00:27:38;5.97;;;4.90;;
6292;SDS011;3179;54.350;10.102;2024-03-06T00:30:05;6.30;;;5.70;;
6292;SDS011;3179;54.350;10.102;2024-03-06T00:32:33;6.80;;;5.80;;
6292;SDS011;3179;54.350;10.102;2024-03-06T00:35:00;6.73;;;5.87;;
6292;SDS011;3179;54.350;10.102;2024-03-06T00:37:28;7.60;;;5.23;;
6292;SDS011;3179;54.350;10.102;2024-03-06T00:39:56;7.00;;;5.10;;
6292;SDS011;3179;54.350;10.102;2024-03-06T00:42:23;5.73;;;4.63;;
6292;SDS011;3179;54.350;10.102;2024-03-06T00:44:50;7.90;;;5.37;;
6292;SDS011;3179;54.350;10.102;2024-03-06T00:47:17;5.77;;;5.00;;
6292;SDS011;3179;54.350;10.102;2024-03-06T00:49:44;7.50;;;5.80;;
6292;SDS011;3179;54.350;10.102;2024-03-06T00:52:11;7.57;;;5.63;;
6292;SDS011;3179;54.350;10.102;2024-03-06T00:54:38;7.10;;;5.00;;
6292;SDS011;3179;54.350;10.102;2024-03-06T00:57:06;5.27;;;4.77;;
6292;SDS011;3179;54.350;10.102;2024-03-06T00:59:33;4.80;;;4.30;;
6292;SDS011;3179;54.350;10.102;2024-03-06T01:01:59;4.60;;;4.07;;
6292;SDS011;3179;54.350;10.102;2024-03-06T01:04:26;5.87;;;4.80;;
6292;SDS011;3179;54.350;10.102;2024-03-06T01:06:53;5.80;;;4.53;;
6292;SDS011;3179;54.350;10.102;2024-03-06T01:09:20;5.27;;;4.33;;
6292;SDS011;3179;54.350;10.102;2024-03-06T01:11:48;5.03;;;4.53;;
6292;SDS011;3179;54.350;10.102;2024-03-06T01:14:16;4.80;;;4.07;;
6292;SDS011;3179;54.350;10.102;2024-03-06T01:16:43;5.13;;;4.63;;
6292;SDS011;3179;54.350;10.102;2024-03-06T01:19:10;7.50;;;4.97;;
6292;SDS011;3179;54.350;10.102;2024-03-06T01:21:38;5.03;;;4.30;;
6292;SDS011;3179;54.350;10.102;2024-03-06T01:24:05;8.50;;;5.07;;
6292;SDS011;3179;54.350;10.102;2024-03-06T01:26:31;4.60;;;4.20;;
6292;SDS011;3179;54.350;10.102;2024-03-06T01:28:58;5.60;;;4.80;;
6292;SDS011;3179;54.350;10.102;2024-03-06T01:31:26;6.30;;;4.90;;
6292;SDS011;3179;54.350;10.102;2024-03-06T01:33:53;7.33;;;5.50;;
6292;SDS011;3179;54.350;10.102;2024-03-06T01:36:20;10.30;;;4.73;;
6292;SDS011;3179;54.350;10.102;2024-03-06T01:38:47;6.60;;;4.27;;
6292;SDS011;3179;54.350;10.102;2024-03-06T01:41:14;5.97;;;4.30;;
6292;SDS011;3179;54.350;10.102;2024-03-06T01:43:41;5.60;;;4.23;;
6292;SDS011;3179;54.350;10.102;2024-03-06T01:46:08;6.07;;;4.67;;
6292;SDS011;3179;54.350;10.102;2024-03-06T01:48:36;3.90;;;3.60;;
6292;SDS011;3179;54.350;10.102;2024-03-06T01:51:04;6.23;;;4.93;;
6292;SDS011;3179;54.350;10.102;2024-03-06T01:53:31;6.10;;;4.80;;
6292;SDS011;3179;54.350;10.102;2024-03-06T01:55:59;4.73;;;4.20;;
6292;SDS011;3179;54.350;10.102;2024-03-06T01:58:26;6.07;;;4.73;;
6292;SDS011;3179;54.350;10.102;2024-03-06T02:00:54;4.57;;;4.00;;
6292;SDS011;3179;54.350;10.102;2024-03-06T02:03:21;5.40;;;4.90;;
6292;SDS011;3179;54.350;10.102;2024-03-06T02:05:49;4.33;;;3.90;;
6292;SDS011;3179;54.350;10.102;2024-03-06T02:08:19;7.10;;;4.43;;
6292;SDS011;3179;54.350;10.102;2024-03-06T02:10:46;7.40;;;6.30;;
6292;SDS011;3179;54.350;10.102;2024-03-06T02:13:13;5.23;;;4.60;;
6292;SDS011;3179;54.350;10.102;2024-03-06T02:15:40;5.97;;;4.10;;
6292;SDS011;3179;54.350;10.102;2024-03-06T02:18:07;4.83;;;3.80;;
6292;SDS011;3179;54.350;10.102;2024-03-06T02:20:37;3.83;;;3.53;;
6292;SDS011;3179;54.350;10.102;2024-03-06T02:23:05;8.07;;;4.70;;
6292;SDS011;3179;54.350;10.102;2024-03-06T02:25:32;6.50;;;4.67;;
6292;SDS011;3179;54.350;10.102;2024-03-06T02:27:59;6.90;;;5.00;;
6292;SDS011;3179;54.350;10.102;2024-03-06T02:30:26;5.23;;;4.73;;
6292;SDS011;3179;54.350;10.102;2024-03-06T02:32:55;6.10;;;4.47;;
6292;SDS011;3179;54.350;10.102;2024-03-06T02:35:22;4.80;;;4.23;;
6292;SDS011;3179;54.350;10.102;2024-03-06T02:37:50;5.30;;;4.77;;
6292;SDS011;3179;54.350;10.102;2024-03-06T02:40:17;8.50;;;5.27;;
6292;SDS011;3179;54.350;10.102;2024-03-06T02:42:44;4.37;;;3.97;;
6292;SDS011;3179;54.350;10.102;2024-03-06T02:45:11;4.63;;;4.17;;
6292;SDS011;3179;54.350;10.102;2024-03-06T02:47:38;5.17;;;4.60;;
6292;SDS011;3179;54.350;10.102;2024-03-06T02:50:06;8.10;;;5.17;;
6292;SDS011;3179;54.350;10.102;2024-03-06T02:52:33;4.70;;;4.30;;
6292;SDS011;3179;54.350;10.102;2024-03-06T02:55:01;7.70;;;5.40;;
6292;SDS011;3179;54.350;10.102;2024-03-06T02:57:29;6.20;;;4.47;;
6292;SDS011;3179;54.350;10.102;2024-03-06T02:59:56;6.90;;;5.20;;
6292;SDS011;3179;54.350;10.102;2024-03-06T03:02:23;6.90;;;5.20;;
6292;SDS011;3179;54.350;10.102;2024-03-06T03:04:50;8.77;;;5.67;;
6292;SDS011;3179;54.350;10.102;2024-03-06T03:07:17;5.47;;;4.50;;
6292;SDS011;3179;54.350;10.102;2024-03-06T03:09:44;4.67;;;4.27;;
6292;SDS011;3179;54.350;10.102;2024-03-06T03:12:13;5.07;;;4.53;;
6292;SDS011;3179;54.350;10.102;2024-03-06T03:14:40;4.40;;;4.00;;
6292;SDS011;3179;54.350;10.102;2024-03-06T03:17:08;6.83;;;4.57;;
6292;SDS011;3179;54.350;10.102;2024-03-06T03:19:35;5.03;;;4.63;;
6292;SDS011;3179;54.350;10.102;2024-03-06T03:22:04;5.67;;;4.77;;
6292;SDS011;3179;54.350;10.102;2024-03-06T03:24:33;7.70;;;5.67;;
6292;SDS011;3179;54.350;10.102;2024-03-06T03:27:00;5.63;;;4.70;;
6292;SDS011;3179;54.350;10.102;2024-03-06T03:29:28;5.57;;;4.90;;
6292;SDS011;3179;54.350;10.102;2024-03-06T03:31:55;5.17;;;4.67;;
6292;SDS011;3179;54.350;10.102;2024-03-06T03:34:22;4.80;;;4.30;;
6292;SDS011;3179;54.350;10.102;2024-03-06T03:36:49;6.00;;;5.40;;
6292;SDS011;3179;54.350;10.102;2024-03-06T03:39:16;10.43;;;5.40;;
6292;SDS011;3179;54.350;10.102;2024-03-06T03:41:45;7.00;;;5.70;;
6292;SDS011;3179;54.350;10.102;2024-03-06T03:44:12;8.17;;;5.90;;
6292;SDS011;3179;54.350;10.102;2024-03-06T03:46:41;6.67;;;4.93;;
6292;SDS011;3179;54.350;10.102;2024-03-06T03:49:09;7.70;;;5.30;;
6292;SDS011;3179;54.350;10.102;2024-03-06T03:51:36;11.60;;;5.80;;
6292;SDS011;3179;54.350;10.102;2024-03-06T03:54:03;6.50;;;5.63;;
6292;SDS011;3179;54.350;10.102;2024-03-06T03:56:31;6.03;;;5.40;;
6292;SDS011;3179;54.350;10.102;2024-03-06T03:58:58;8.80;;;6.03;;
6292;SDS011;3179;54.350;10.102;2024-03-06T04:01:25;6.57;;;5.23;;
6292;SDS011;3179;54.350;10.102;2024-03-06T04:03:53;8.20;;;5.93;;
6292;SDS011;3179;54.350;10.102;2024-03-06T04:06:20;5.30;;;4.80;;
6292;SDS011;3179;54.350;10.102;2024-03-06T04:08:47;9.63;;;5.80;;
6292;SDS011;3179;54.350;10.102;2024-03-06T04:11:14;6.90;;;5.40;;
6292;SDS011;3179;54.350;10.102;2024-03-06T04:13:41;9.90;;;4.90;;
6292;SDS011;3179;54.350;10.102;2024-03-06T04:16:08;6.10;;;5.50;;
6292;SDS011;3179;54.350;10.102;2024-03-06T04:18:35;11.23;;;5.17;;
6292;SDS011;3179;54.350;10.102;2024-03-06T04:21:04;5.70;;;5.13;;
6292;SDS011;3179;54.350;10.102;2024-03-06T04:23:31;5.33;;;4.83;;
6292;SDS011;3179;54.350;10.102;2024-03-06T04:25:58;6.57;;;5.87;;
6292;SDS011;3179;54.350;10.102;2024-03-06T04:28:25;7.53;;;5.93;;
6292;SDS011;3179;54.350;10.102;2024-03-06T04:30:52;5.30;;;4.80;;
6292;SDS011;3179;54.350;10.102;2024-03-06T04:33:19;6.40;;;5.40;;
6292;SDS011;3179;54.350;10.102;2024-03-06T04:35:46;7.10;;;6.20;;
6292;SDS011;3179;54.350;10.102;2024-03-06T04:38:14;7.20;;;5.80;;
6292;SDS011;3179;54.350;10.102;2024-03-06T04:40:41;10.00;;;5.30;;
6292;SDS011;3179;54.350;10.102;2024-03-06T04:43:08;7.87;;;5.70;;
6292;SDS011;3179;54.350;10.102;2024-03-06T04:45:35;6.70;;;5.73;;
6292;SDS011;3179;54.350;10.102;2024-03-06T04:48:02;7.10;;;5.50;;
6292;SDS011;3179;54.350;10.102;2024-03-06T04:50:29;6.70;;;5.03;;
6292;SDS011;3179;54.350;10.102;2024-03-06T04:52:56;5.77;;;5.00;;
6292;SDS011;3179;54.350;10.102;2024-03-06T04:55:24;8.30;;;6.50;;
6292;SDS011;3179;54.350;10.102;2024-03-06T04:57:52;10.40;;;6.93;;
6292;SDS011;3179;54.350;10.102;2024-03-06T05:00:19;8.60;;;7.27;;
6292;SDS011;3179;54.350;10.102;2024-03-06T05:02:46;6.87;;;6.17;;
6292;SDS011;3179;54.350;10.102;2024-03-06T05:05:14;8.30;;;5.93;;
6292;SDS011;3179;54.350;10.102;2024-03-06T05:07:41;7.17;;;6.10;;
6292;SDS011;3179;54.350;10.102;2024-03-06T05:10:08;6.43;;;5.80;;
6292;SDS011;3179;54.350;10.102;2024-03-06T05:12:37;8.10;;;6.13;;
6292;SDS011;3179;54.350;10.102;2024-03-06T05:15:04;8.53;;;7.00;;
6292;SDS011;3179;54.350;10.102;2024-03-06T05:17:31;8.00;;;6.13;;
6292;SDS011;3179;54.350;10.102;2024-03-06T05:19:58;7.90;;;6.83;;
6292;SDS011;3179;54.350;10.102;2024-03-06T05:22:25;8.93;;;6.87;;
6292;SDS011;3179;54.350;10.102;2024-03-06T05:24:52;7.63;;;6.67;;
6292;SDS011;3179;54.350;10.102;2024-03-06T05:27:20;9.57;;;7.93;;
6292;SDS011;3179;54.350;10.102;2024-03-06T05:29:48;10.67;;;7.40;;
6292;SDS011;3179;54.350;10.102;2024-03-06T05:32:15;10.47;;;8.07;;
6292;SDS011;3179;54.350;10.102;2024-03-06T05:34:42;11.23;;;7.90;;
6292;SDS011;3179;54.350;10.102;2024-03-06T05:37:09;8.73;;;7.30;;
6292;SDS011;3179;54.350;10.102;2024-03-06T05:39:36;9.10;;;8.00;;
6292;SDS011;3179;54.350;10.102;2024-03-06T05:42:03;8.50;;;7.50;;
6292;SDS011;3179;54.350;10.102;2024-03-06T05:44:31;10.87;;;8.00;;
6292;SDS011;3179;54.350;10.102;2024-03-06T05:46:59;11.57;;;8.00;;
6292;SDS011;3179;54.350;10.102;2024-03-06T05:49:27;9.93;;;7.53;;
6292;SDS011;3179;54.350;10.102;2024-03-06T05:51:54;10.77;;;7.00;;
6292;SDS011;3179;54.350;10.102;2024-03-06T05:54:22;10.80;;;7.60;;
6292;SDS011;3179;54.350;10.102;2024-03-06T05:56:50;11.53;;;7.40;;
6292;SDS011;3179;54.350;10.102;2024-03-06T05:59:18;7.37;;;5.97;;
6292;SDS011;3179;54.350;10.102;2024-03-06T06:01:45;8.67;;;7.27;;
6292;SDS011;3179;54.350;10.102;2024-03-06T06:04:14;10.93;;;7.07;;
6292;SDS011;3179;54.350;10.102;2024-03-06T06:06:40;9.40;;;7.50;;
6292;SDS011;3179;54.350;10.102;2024-03-06T06:09:07;11.40;;;8.60;;
6292;SDS011;3179;54.350;10.102;2024-03-06T06:11:40;10.87;;;7.30;;
6292;SDS011;3179;54.350;10.102;2024-03-06T06:14:08;8.93;;;7.00;;
6292;SDS011;3179;54.350;10.102;2024-03-06T06:16:35;8.47;;;6.47;;
6292;SDS011;3179;54.350;10.102;2024-03-06T06:19:02;12.27;;;8.20;;
6292;SDS011;3179;54.350;10.102;2024-03-06T06:21:32;8.87;;;6.43;;
6292;SDS011;3179;54.350;10.102;2024-03-06T06:24:00;9.37;;;7.00;;
6292;SDS011;3179;54.350;10.102;2024-03-06T06:26:28;10.33;;;7.50;;
6292;SDS011;3179;54.350;10.102;2024-03-06T06:28:55;8.17;;;6.33;;
6292;SDS011;3179;54.350;10.102;2024-03-06T06:31:22;10.27;;;7.97;;
6292;SDS011;3179;54.350;10.102;2024-03-06T06:33:50;7.00;;;5.63;;
6292;SDS011;3179;54.350;10.102;2024-03-06T06:36:17;9.60;;;7.67;;
6292;SDS011;3179;54.350;10.102;2024-03-06T06:38:46;10.60;;;8.60;;
6292;SDS011;3179;54.350;10.102;2024-03-06T06:41:13;10.80;;;8.10;;
6292;SDS011;3179;54.350;10.102;2024-03-06T06:43:40;11.27;;;7.30;;
6292;SDS011;3179;54.350;10.102;2024-03-06T06:46:07;12.53;;;8.87;;
6292;SDS011;3179;54.350;10.102;2024-03-06T06:48:34;10.20;;;8.00;;
6292;SDS011;3179;54.350;10.102;2024-03-06T06:51:01;13.90;;;8.53;;
6292;SDS011;3179;54.350;10.102;2024-03-06T06:53:28;13.27;;;8.07;;
6292;SDS011;3179;54.350;10.102;2024-03-06T06:55:56;9.40;;;7.60;;
6292;SDS011;3179;54.350;10.102;2024-03-06T06:58:23;10.50;;;7.40;;
6292;SDS011;3179;54.350;10.102;2024-03-06T07:00:52;13.87;;;9.30;;
6292;SDS011;3179;54.350;10.102;2024-03-06T07:03:18;14.73;;;9.27;;
6292;SDS011;3179;54.350;10.102;2024-03-06T07:05:46;9.83;;;7.40;;
6292;SDS011;3179;54.350;10.102;2024-03-06T07:08:13;11.80;;;8.20;;
6292;SDS011;3179;54.350;10.102;2024-03-06T07:10:40;10.73;;;8.07;;
6292;SDS011;3179;54.350;10.102;2024-03-06T07:13:08;12.30;;;8.50;;
6292;SDS011;3179;54.350;10.102;2024-03-06T07:15:35;10.90;;;8.43;;
6292;SDS011;3179;54.350;10.102;2024-03-06T07:18:02;10.43;;;8.00;;
6292;SDS011;3179;54.350;10.102;2024-03-06T07:20:30;11.27;;;7.63;;
6292;SDS011;3179;54.350;10.102;2024-03-06T07:22:56;14.70;;;8.93;;
6292;SDS011;3179;54.350;10.102;2024-03-06T07:25:23;10.70;;;8.10;;
6292;SDS011;3179;54.350;10.102;2024-03-06T07:27:50;10.33;;;7.57;;
6292;SDS011;3179;54.350;10.102;2024-03-06T07:30:19;12.73;;;8.80;;
6292;SDS011;3179;54.350;10.102;2024-03-06T07:32:47;12.90;;;7.70;;
6292;SDS011;3179;54.350;10.102;2024-03-06T07:35:14;9.70;;;8.23;;
6292;SDS011;3179;54.350;10.102;2024-03-06T07:37:42;9.50;;;7.40;;
6292;SDS011;3179;54.350;10.102;2024-03-06T07:40:11;8.87;;;6.80;;
6292;SDS011;3179;54.350;10.102;2024-03-06T07:42:38;6.50;;;5.50;;
6292;SDS011;3179;54.350;10.102;2024-03-06T07:45:05;8.30;;;6.57;;
6292;SDS011;3179;54.350;10.102;2024-03-06T07:47:35;9.67;;;6.10;;
6292;SDS011;3179;54.350;10.102;2024-03-06T07:50:04;7.57;;;5.20;;
6292;SDS011;3179;54.350;10.102;2024-03-06T07:52:32;5.80;;;5.03;;
6292;SDS011;3179;54.350;10.102;2024-03-06T07:55:01;6.27;;;5.60;;
6292;SDS011;3179;54.350;10.102;2024-03-06T07:57:28;6.80;;;5.87;;
6292;SDS011;3179;54.350;10.102;2024-03-06T07:59:54;6.57;;;5.00;;
6292;SDS011;3179;54.350;10.102;2024-03-06T08:02:21;7.10;;;4.97;;
6292;SDS011;3179;54.350;10.102;2024-03-06T08:04:50;9.50;;;5.90;;
6292;SDS011;3179;54.350;10.102;2024-03-06T08:07:17;6.93;;;4.80;;
6292;SDS011;3179;54.350;10.102;2024-03-06T08:09:43;5.87;;;5.20;;
6292;SDS011;3179;54.350;10.102;2024-03-06T08:12:10;7.57;;;5.87;;
6292;SDS011;3179;54.350;10.102;2024-03-06T08:14:37;7.37;;;5.43;;
6292;SDS011;3179;54.350;10.102;2024-03-06T08:17:04;7.90;;;5.93;;
6292;SDS011;3179;54.350;10.102;2024-03-06T08:19:31;8.30;;;6.13;;
6292;SDS011;3179;54.350;10.102;2024-03-06T08:21:59;7.40;;;6.10;;
6292;SDS011;3179;54.350;10.102;2024-03-06T08:24:26;7.03;;;5.93;;
6292;SDS011;3179;54.350;10.102;2024-03-06T08:26:53;6.13;;;5.30;;
6292;SDS011;3179;54.350;10.102;2024-03-06T08:29:20;5.70;;;5.10;;
6292;SDS011;3179;54.350;10.102;2024-03-06T08:31:47;6.40;;;4.93;;
6292;SDS011;3179;54.350;10.102;2024-03-06T08:34:14;7.63;;;5.70;;
6292;SDS011;3179;54.350;10.102;2024-03-06T08:36:41;7.70;;;6.00;;
6292;SDS011;3179;54.350;10.102;2024-03-06T08:39:10;5.80;;;5.20;;
6292;SDS011;3179;54.350;10.102;2024-03-06T08:41:40;5.63;;;4.93;;
6292;SDS011;3179;54.350;10.102;2024-03-06T08:44:07;8.27;;;6.30;;
6292;SDS011;3179;54.350;10.102;2024-03-06T08:46:34;6.53;;;5.57;;
6292;SDS011;3179;54.350;10.102;2024-03-06T08:49:00;6.73;;;5.33;;
6292;SDS011;3179;54.350;10.102;2024-03-06T08:51:27;6.10;;;5.50;;
6292;SDS011;3179;54.350;10.102;2024-03-06T08:53:54;6.30;;;5.17;;
6292;SDS011;3179;54.350;10.102;2024-03-06T08:56:22;8.73;;;5.43;;
6292;SDS011;3179;54.350;10.102;2024-03-06T08:58:49;7.40;;;5.63;;
6292;SDS011;3179;54.350;10.102;2024-03-06T09:01:16;8.80;;;6.27;;
6292;SDS011;3179;54.350;10.102;2024-03-06T09:03:43;9.70;;;5.93;;
6292;SDS011;3179;54.350;10.102;2024-03-06T09:06:10;7.43;;;6.47;;
6292;SDS011;3179;54.350;10.102;2024-03-06T09:08:37;9.50;;;6.10;;
6292;SDS011;3179;54.350;10.102;2024-03-06T09:11:04;6.40;;;5.63;;
6292;SDS011;3179;54.350;10.102;2024-03-06T09:13:33;6.13;;;5.50;;
6292;SDS011;3179;54.350;10.102;2024-03-06T09:16:00;6.43;;;5.60;;
6292;SDS011;3179;54.350;10.102;2024-03-06T09:18:27;6.70;;;5.30;;
6292;SDS011;3179;54.350;10.102;2024-03-06T09:20:54;6.77;;;5.13;;
6292;SDS011;3179;54.350;10.102;2024-03-06T09:23:21;8.83;;;5.73;;
6292;SDS011;3179;54.350;10.102;2024-03-06T09:25:47;9.37;;;6.70;;
6292;SDS011;3179;54.350;10.102;2024-03-06T09:28:14;14.07;;;7.63;;
6292;SDS011;3179;54.350;10.102;2024-03-06T09:30:43;8.60;;;6.50;;
6292;SDS011;3179;54.350;10.102;2024-03-06T09:33:10;7.40;;;6.70;;
6292;SDS011;3179;54.350;10.102;2024-03-06T09:35:36;14.83;;;7.70;;
6292;SDS011;3179;54.350;10.102;2024-03-06T09:38:03;10.00;;;7.30;;
6292;SDS011;3179;54.350;10.102;2024-03-06T09:40:30;10.13;;;6.60;;
6292;SDS011;3179;54.350;10.102;2024-03-06T09:42:57;10.13;;;7.40;;
6292;SDS011;3179;54.350;10.102;2024-03-06T09:45:24;7.60;;;6.37;;
6292;SDS011;3179;54.350;10.102;2024-03-06T09:47:52;8.43;;;6.53;;
6292;SDS011;3179;54.350;10.102;2024-03-06T09:50:22;9.30;;;7.10;;
6292;SDS011;3179;54.350;10.102;2024-03-06T09:52:51;8.30;;;7.07;;
6292;SDS011;3179;54.350;10.102;2024-03-06T09:55:21;7.50;;;6.47;;
6292;SDS011;3179;54.350;10.102;2024-03-06T09:57:49;7.73;;;6.60;;
6292;SDS011;3179;54.350;10.102;2024-03-06T10:00:16;8.23;;;6.87;;
6292;SDS011;3179;54.350;10.102;2024-03-06T10:02:46;7.67;;;6.87;;
6292;SDS011;3179;54.350;10.102;2024-03-06T10:05:22;8.13;;;7.23;;
6292;SDS011;3179;54.350;10.102;2024-03-06T10:07:50;10.57;;;7.80;;
6292;SDS011;3179;54.350;10.102;2024-03-06T10:10:17;10.33;;;7.60;;
6292;SDS011;3179;54.350;10.102;2024-03-06T10:12:45;11.20;;;6.70;;
6292;SDS011;3179;54.350;10.102;2024-03-06T10:15:13;8.13;;;6.93;;
6292;SDS011;3179;54.350;10.102;2024-03-06T10:17:40;9.17;;;6.87;;
6292;SDS011;3179;54.350;10.102;2024-03-06T10:20:16;8.67;;;7.10;;
6292;SDS011;3179;54.350;10.102;2024-03-06T10:22:46;9.80;;;7.13;;
6292;SDS011;3179;54.350;10.102;2024-03-06T10:25:17;9.53;;;6.97;;
6292;SDS011;3179;54.350;10.102;2024-03-06T10:27:44;7.87;;;6.40;;
6292;SDS011;3179;54.350;10.102;2024-03-06T10:30:12;8.50;;;6.33;;
6292;SDS011;3179;54.350;10.102;2024-03-06T10:32:41;6.70;;;5.97;;
6292;SDS011;3179;54.350;10.102;2024-03-06T10:35:17;10.03;;;7.30;;
6292;SDS011;3179;54.350;10.102;2024-03-06T10:37:47;9.37;;;6.33;;
6292;SDS011;3179;54.350;10.102;2024-03-06T10:40:15;8.47;;;6.70;;
6292;SDS011;3179;54.350;10.102;2024-03-06T10:42:44;8.57;;;6.57;;
6292;SDS011;3179;54.350;10.102;2024-03-06T10:45:11;10.20;;;6.80;;
6292;SDS011;3179;54.350;10.102;2024-03-06T10:47:40;6.80;;;5.67;;
6292;SDS011;3179;54.350;10.102;2024-03-06T10:50:12;7.83;;;5.60;;
6292;SDS011;3179;54.350;10.102;2024-03-06T10:52:42;7.10;;;6.40;;
6292;SDS011;3179;54.350;10.102;2024-03-06T10:55:14;11.03;;;6.27;;
6292;SDS011;3179;54.350;10.102;2024-03-06T10:57:42;6.40;;;5.20;;
6292;SDS011;3179;54.350;10.102;2024-03-06T11:00:10;6.13;;;5.40;;
6292;SDS011;3179;54.350;10.102;2024-03-06T11:02:42;9.23;;;6.77;;
6292;SDS011;3179;54.350;10.102;2024-03-06T11:05:13;7.37;;;5.80;;
6292;SDS011;3179;54.350;10.102;2024-03-06T11:07:40;7.40;;;6.27;;
6292;SDS011;3179;54.350;10.102;2024-03-06T11:10:08;9.07;;;6.23;;
6292;SDS011;3179;54.350;10.102;2024-03-06T11:12:42;9.90;;;7.17;;
6292;SDS011;3179;54.350;10.102;2024-03-06T11:15:13;8.27;;;6.20;;
6292;SDS011;3179;54.350;10.102;2024-03-06T11:17:41;8.17;;;6.43;;
6292;SDS011;3179;54.350;10.102;2024-03-06T11:20:12;8.43;;;7.07;;
6292;SDS011;3179;54.350;10.102;2024-03-06T11:28:35;10.73;;;7.53;;
6292;SDS011;3179;54.350;10.102;2024-03-06T11:31:05;8.93;;;7.20;;
6292;SDS011;3179;54.350;10.102;2024-03-06T11:33:36;8.33;;;6.90;;
6292;SDS011;3179;54.350;10.102;2024-03-06T11:36:15;8.23;;;6.50;;
6292;SDS011;3179;54.350;10.102;2024-03-06T11:38:46;10.67;;;6.90;;
6292;SDS011;3179;54.350;10.102;2024-03-06T11:41:23;7.50;;;6.70;;
6292;SDS011;3179;54.350;10.102;2024-03-06T11:43:53;8.77;;;6.90;;
6292;SDS011;3179;54.350;10.102;2024-03-06T11:46:21;9.53;;;7.10;;
6292;SDS011;3179;54.350;10.102;2024-03-06T11:48:51;8.23;;;6.80;;
6292;SDS011;3179;54.350;10.102;2024-03-06T11:51:20;6.90;;;6.10;;
6292;SDS011;3179;54.350;10.102;2024-03-06T11:53:49;8.57;;;6.70;;
6292;SDS011;3179;54.350;10.102;2024-03-06T11:56:17;8.90;;;7.40;;
6292;SDS011;3179;54.350;10.102;2024-03-06T11:58:45;8.37;;;7.20;;
6292;SDS011;3179;54.350;10.102;2024-03-06T12:01:14;8.83;;;6.20;;
6292;SDS011;3179;54.350;10.102;2024-03-06T12:03:41;9.03;;;6.77;;
6292;SDS011;3179;54.350;10.102;2024-03-06T12:06:09;10.00;;;6.03;;
6292;SDS011;3179;54.350;10.102;2024-03-06T12:08:36;9.20;;;6.27;;
6292;SDS011;3179;54.350;10.102;2024-03-06T12:11:04;12.50;;;6.70;;
6292;SDS011;3179;54.350;10.102;2024-03-06T12:13:32;9.03;;;6.17;;
6292;SDS011;3179;54.350;10.102;2024-03-06T12:16:03;6.83;;;6.13;;
6292;SDS011;3179;54.350;10.102;2024-03-06T12:18:32;7.03;;;6.33;;
6292;SDS011;3179;54.350;10.102;2024-03-06T12:21:00;7.20;;;6.00;;
6292;SDS011;3179;54.350;10.102;2024-03-06T12:23:28;8.70;;;6.67;;
6292;SDS011;3179;54.350;10.102;2024-03-06T12:26:04;7.93;;;6.33;;
6292;SDS011;3179;54.350;10.102;2024-03-06T12:28:34;10.47;;;7.27;;
6292;SDS011;3179;54.350;10.102;2024-03-06T12:31:01;6.60;;;5.80;;
6292;SDS011;3179;54.350;10.102;2024-03-06T12:33:29;8.90;;;6.90;;
6292;SDS011;3179;54.350;10.102;2024-03-06T12:36:05;9.30;;;7.10;;
6292;SDS011;3179;54.350;10.102;2024-03-06T12:38:35;7.20;;;5.63;;
6292;SDS011;3179;54.350;10.102;2024-03-06T12:41:02;7.10;;;6.10;;
6292;SDS011;3179;54.350;10.102;2024-03-06T12:43:31;5.97;;;5.37;;
6292;SDS011;3179;54.350;10.102;2024-03-06T12:45:59;7.27;;;5.47;;
6292;SDS011;3179;54.350;10.102;2024-03-06T12:48:27;7.03;;;5.00;;
6292;SDS011;3179;54.350;10.102;2024-03-06T12:50:55;5.93;;;5.33;;
6292;SDS011;3179;54.350;10.102;2024-03-06T12:53:31;6.90;;;5.70;;
6292;SDS011;3179;54.350;10.102;2024-03-06T12:55:58;9.30;;;6.50;;
6292;SDS011;3179;54.350;10.102;2024-03-06T12:58:25;8.67;;;5.47;;
6292;SDS011;3179;54.350;10.102;2024-03-06T13:00:51;8.70;;;6.03;;
6292;SDS011;3179;54.350;10.102;2024-03-06T13:03:19;7.70;;;5.63;;
6292;SDS011;3179;54.350;10.102;2024-03-06T13:05:46;6.53;;;5.80;;
6292;SDS011;3179;54.350;10.102;2024-03-06T13:08:13;6.90;;;5.00;;
6292;SDS011;3179;54.350;10.102;2024-03-06T13:10:42;8.77;;;5.93;;
6292;SDS011;3179;54.350;10.102;2024-03-06T13:13:10;6.27;;;5.20;;
6292;SDS011;3179;54.350;10.102;2024-03-06T13:15:37;5.30;;;4.87;;
6292;SDS011;3179;54.350;10.102;2024-03-06T13:18:04;5.93;;;5.33;;
6292;SDS011;3179;54.350;10.102;2024-03-06T13:20:31;5.43;;;4.23;;
6292;SDS011;3179;54.350;10.102;2024-03-06T13:22:58;7.87;;;5.20;;
6292;SDS011;3179;54.350;10.102;2024-03-06T13:25:25;6.33;;;4.83;;
6292;SDS011;3179;54.350;10.102;2024-03-06T13:27:53;9.57;;;5.70;;
6292;SDS011;3179;54.350;10.102;2024-03-06T13:30:20;7.97;;;5.30;;
6292;SDS011;3179;54.350;10.102;2024-03-06T13:32:51;5.40;;;4.90;;
6292;SDS011;3179;54.350;10.102;2024-03-06T13:35:19;9.80;;;4.67;;
6292;SDS011;3179;54.350;10.102;2024-03-06T13:37:46;6.67;;;4.20;;
6292;SDS011;3179;54.350;10.102;2024-03-06T13:40:14;7.63;;;5.60;;
6292;SDS011;3179;54.350;10.102;2024-03-06T13:42:41;6.93;;;4.70;;
6292;SDS011;3179;54.350;10.102;2024-03-06T13:45:10;4.20;;;3.80;;
6292;SDS011;3179;54.350;10.102;2024-03-06T13:47:37;6.80;;;5.60;;
6292;SDS011;3179;54.350;10.102;2024-03-06T13:50:06;7.40;;;5.00;;
6292;SDS011;3179;54.350;10.102;2024-03-06T13:52:34;5.33;;;4.83;;
6292;SDS011;3179;54.350;10.102;2024-03-06T13:55:01;6.17;;;4.90;;
6292;SDS011;3179;54.350;10.102;2024-03-06T13:57:29;5.33;;;4.20;;
6292;SDS011;3179;54.350;10.102;2024-03-06T13:59:58;3.80;;;3.40;;
6292;SDS011;3179;54.350;10.102;2024-03-06T14:02:26;5.50;;;4.50;;
6292;SDS011;3179;54.350;10.102;2024-03-06T14:04:54;4.50;;;4.10;;
6292;SDS011;3179;54.350;10.102;2024-03-06T14:07:21;4.53;;;4.13;;
6292;SDS011;3179;54.350;10.102;2024-03-06T14:09:48;4.03;;;3.70;;
6292;SDS011;3179;54.350;10.102;2024-03-06T14:12:15;6.03;;;3.87;;
6292;SDS011;3179;54.350;10.102;2024-03-06T14:14:42;5.63;;;4.30;;
6292;SDS011;3179;54.350;10.102;2024-03-06T14:17:10;5.03;;;3.60;;
6292;SDS011;3179;54.350;10.102;2024-03-06T14:19:38;4.37;;;3.97;;
6292;SDS011;3179;54.350;10.102;2024-03-06T14:22:06;4.23;;;3.70;;
6292;SDS011;3179;54.350;10.102;2024-03-06T14:24:33;4.07;;;3.70;;
6292;SDS011;3179;54.350;10.102;2024-03-06T14:27:00;4.23;;;3.83;;
6292;SDS011;3179;54.350;10.102;2024-03-06T14:29:27;4.50;;;3.80;;
6292;SDS011;3179;54.350;10.102;2024-03-06T14:31:54;4.30;;;3.90;;
6292;SDS011;3179;54.350;10.102;2024-03-06T14:34:21;4.20;;;3.80;;
6292;SDS011;3179;54.350;10.102;2024-03-06T14:36:50;4.30;;;3.90;;
6292;SDS011;3179;54.350;10.102;2024-03-06T14:39:17;3.90;;;3.60;;
6292;SDS011;3179;54.350;10.102;2024-03-06T14:41:47;4.30;;;3.90;;
6292;SDS011;3179;54.350;10.102;2024-03-06T14:44:13;4.03;;;3.73;;
6292;SDS011;3179;54.350;10.102;2024-03-06T14:46:40;4.57;;;4.17;;
6292;SDS011;3179;54.350;10.102;2024-03-06T14:49:08;4.67;;;4.27;;
6292;SDS011;3179;54.350;10.102;2024-03-06T14:51:35;4.70;;;4.30;;
6292;SDS011;3179;54.350;10.102;2024-03-06T14:54:04;5.03;;;4.23;;
6292;SDS011;3179;54.350;10.102;2024-03-06T14:56:31;3.60;;;3.30;;
6292;SDS011;3179;54.350;10.102;2024-03-06T14:58:57;4.50;;;4.10;;
6292;SDS011;3179;54.350;10.102;2024-03-06T15:01:24;4.50;;;4.10;;
6292;SDS011;3179;54.350;10.102;2024-03-06T15:03:51;5.47;;;4.93;;
6292;SDS011;3179;54.350;10.102;2024-03-06T15:06:19;6.90;;;5.13;;
6292;SDS011;3179;54.350;10.102;2024-03-06T15:08:46;5.30;;;4.80;;